Time;durP1;ratioP1;P1;durP2;ratioP2;P2;SDS_P1;SDS_P2;PMS_P1;PMS_P2;Temp;Humidity;BMP_temperature;BMP_pressure;BME280_temperature;BME280_humidity;BME280_pressure;Samples;Min_cycle;Max_cycle;Signal;HPM_P1;HPM_P2
2022/03/26 00:00:08;;;;;;;42.57;26.17;;;;;;;11.61;30.40;101993.84;10362817;28;20283;-85
2022/03/26 00:05:10;;;;;;;49.37;26.60;;;;;;;11.56;30.60;101993.09;10365793;28;21004;-85
2022/03/26 00:10:13;;;;;;;43.23;25.63;;;;;;;11.45;30.73;101999.00;10358657;28;20236;-84
2022/03/26 00:15:15;;;;;;;45.87;26.57;;;;;;;11.33;30.79;101990.19;10358725;28;20305;-85
2022/03/26 00:20:17;;;;;;;43.50;25.37;;;;;;;11.42;30.55;101982.63;10377539;28;20294;-84
2022/03/26 00:25:20;;;;;;;39.63;26.90;;;;;;;11.47;30.39;101984.53;10361164;28;20367;-84
2022/03/26 00:30:22;;;;;;;41.33;26.03;;;;;;;11.16;31.03;101978.59;10343111;28;20233;-84
2022/03/26 00:35:24;;;;;;;42.80;27.40;;;;;;;11.15;31.07;101982.56;10362933;28;20209;-84
2022/03/26 00:40:26;;;;;;;46.00;26.97;;;;;;;11.11;31.25;101978.72;10359740;28;20225;-85
2022/03/26 00:45:29;;;;;;;42.20;26.50;;;;;;;11.32;30.81;101971.50;10376782;28;20359;-84
2022/03/26 00:50:32;;;;;;;39.43;25.90;;;;;;;11.23;31.03;101976.19;10361201;28;20605;-85
2022/03/26 00:55:34;;;;;;;44.07;26.57;;;;;;;10.64;31.75;101979.84;10359686;28;20232;-83
2022/03/26 01:00:37;;;;;;;41.47;26.77;;;;;;;10.95;31.24;101977.31;10340180;28;20236;-84
2022/03/26 01:05:39;;;;;;;40.30;25.10;;;;;;;10.90;31.25;101972.56;10362747;28;20303;-84
2022/03/26 01:10:44;;;;;;;41.93;26.87;;;;;;;10.88;31.47;101968.38;10349905;28;20512;-84
2022/03/26 01:15:46;;;;;;;46.07;26.43;;;;;;;10.99;31.42;101978.38;10347185;28;20542;-85
2022/03/26 01:20:49;;;;;;;41.60;26.43;;;;;;;10.53;32.12;101990.47;10332561;28;20224;-84
2022/03/26 01:25:52;;;;;;;42.90;26.47;;;;;;;11.07;31.19;101984.16;10351318;28;20704;-84
2022/03/26 01:30:54;;;;;;;42.77;24.87;;;;;;;10.75;31.99;101992.66;10362790;28;20205;-86
2022/03/26 01:35:57;;;;;;;42.07;25.40;;;;;;;10.58;32.25;102001.72;10334296;28;20287;-85
2022/03/26 01:40:59;;;;;;;38.53;24.30;;;;;;;10.63;31.98;102000.78;10348187;28;20291;-86
2022/03/26 01:46:02;;;;;;;42.73;24.83;;;;;;;10.46;32.40;102001.34;10334334;28;20631;-84
2022/03/26 01:51:15;;;;;;;38.30;25.10;;;;;;;10.84;31.54;102004.13;10328621;28;20225;-84
2022/03/26 01:56:19;;;;;;;40.17;25.30;;;;;;;10.79;31.75;101997.38;10356409;28;20221;-84
2022/03/26 02:01:21;;;;;;;40.73;24.77;;;;;;;10.33;32.50;101996.44;10341816;28;20209;-84
2022/03/26 02:06:28;;;;;;;39.00;25.77;;;;;;;10.17;32.60;101993.00;10346189;28;20661;-85
2022/03/26 02:11:32;;;;;;;44.53;25.07;;;;;;;10.08;32.70;101992.88;10332886;28;20232;-84
2022/03/26 02:16:37;;;;;;;44.13;25.87;;;;;;;10.06;32.75;101988.66;10332130;28;20267;-84
2022/03/26 02:21:40;;;;;;;41.33;25.40;;;;;;;10.22;32.39;101986.44;10359012;28;20674;-85
2022/03/26 02:26:42;;;;;;;39.47;24.47;;;;;;;10.08;32.64;101983.53;10334197;28;20311;-84
2022/03/26 02:31:45;;;;;;;43.73;24.97;;;;;;;10.11;32.62;101979.25;10334882;28;20198;-85
2022/03/26 02:36:47;;;;;;;37.27;23.47;;;;;;;10.04;32.19;101982.47;10348282;28;20213;-84
2022/03/26 02:41:50;;;;;;;45.27;25.43;;;;;;;10.30;32.26;101982.91;10360161;28;20205;-84
2022/03/26 02:46:52;;;;;;;37.90;24.23;;;;;;;9.69;32.99;101984.66;10322618;28;20256;-85
2022/03/26 02:51:54;;;;;;;38.37;24.80;;;;;;;10.12;32.54;101986.56;10364821;28;20213;-84
2022/03/26 02:56:57;;;;;;;43.17;24.83;;;;;;;10.18;32.69;101993.84;10329899;28;20267;-84
2022/03/26 03:01:59;;;;;;;40.07;26.63;;;;;;;9.79;32.95;101982.84;10378306;28;20232;-85
2022/03/26 03:07:02;;;;;;;36.80;22.70;;;;;;;9.87;32.90;101984.97;10380544;28;20213;-85
2022/03/26 03:12:05;;;;;;;42.37;24.43;;;;;;;9.81;32.88;101984.22;10363395;28;20312;-85
2022/03/26 03:17:07;;;;;;;43.77;22.90;;;;;;;9.75;33.10;101981.75;10363165;28;20229;-85
2022/03/26 03:22:09;;;;;;;40.70;24.23;;;;;;;9.76;33.08;101984.28;10377338;28;20655;-84
2022/03/26 03:27:12;;;;;;;43.53;24.00;;;;;;;9.48;33.32;101993.63;10347428;28;20229;-84
2022/03/26 03:32:14;;;;;;;38.87;23.70;;;;;;;9.94;32.54;101983.47;10364277;28;20691;-84
2022/03/26 03:37:17;;;;;;;38.37;23.23;;;;;;;9.88;32.60;101987.50;10378957;28;20594;-84
2022/03/26 03:42:20;;;;;;;42.00;24.80;;;;;;;9.60;33.01;101982.78;10351612;28;20209;-84
2022/03/26 03:47:22;;;;;;;38.83;24.73;;;;;;;9.58;32.89;101982.22;10379190;28;20268;-84
2022/03/26 03:52:25;;;;;;;37.57;24.00;;;;;;;9.33;33.23;101995.50;10362160;28;20684;-84
2022/03/26 03:57:27;;;;;;;41.20;24.30;;;;;;;9.35;33.15;101981.94;10345436;28;20193;-84
2022/03/26 04:02:31;;;;;;;40.30;24.60;;;;;;;9.29;33.39;101985.97;10360860;28;20209;-84
2022/03/26 04:07:33;;;;;;;35.80;23.47;;;;;;;9.16;33.60;101985.84;10373120;28;20205;-84
2022/03/26 04:12:38;;;;;;;38.70;23.83;;;;;;;9.36;33.06;101977.97;10369842;28;20228;-84
2022/03/26 04:17:40;;;;;;;39.93;23.93;;;;;;;9.34;33.30;101988.72;10352144;28;20282;-85
2022/03/26 04:22:43;;;;;;;46.27;23.70;;;;;;;9.22;33.48;101985.47;10364700;28;20213;-84
2022/03/26 04:27:46;;;;;;;43.23;24.90;;;;;;;9.43;32.90;102002.19;10368313;28;20582;-85
2022/03/26 04:32:48;;;;;;;41.20;24.50;;;;;;;9.33;33.29;101998.31;10361233;28;20209;-84
2022/03/26 04:37:55;;;;;;;39.10;24.23;;;;;;;8.86;33.64;102012.38;10337093;28;20237;-84
2022/03/26 04:42:57;;;;;;;41.90;25.20;;;;;;;8.62;34.62;102010.28;10353321;28;20197;-86
2022/03/26 04:48:00;;;;;;;36.57;24.17;;;;;;;8.69;34.20;102003.50;10374433;28;20245;-87
2022/03/26 04:53:03;;;;;;;44.97;24.77;;;;;;;8.81;34.22;102006.75;10351219;28;20209;-86
2022/03/26 04:58:05;;;;;;;37.37;23.53;;;;;;;8.80;34.07;102011.56;10369394;28;20209;-87
2022/03/26 05:03:08;;;;;;;40.73;24.43;;;;;;;8.72;34.07;102019.81;10353722;28;20221;-86
2022/03/26 05:08:10;;;;;;;39.03;23.97;;;;;;;8.69;34.38;102018.44;10367910;28;20287;-85
2022/03/26 05:13:13;;;;;;;38.40;23.43;;;;;;;8.95;34.07;102019.03;10351928;28;20252;-87
2022/03/26 05:18:15;;;;;;;42.27;23.77;;;;;;;8.87;33.70;102028.16;10347491;28;20299;-88
2022/03/26 05:23:18;;;;;;;36.17;23.13;;;;;;;8.83;34.02;102030.72;10360913;28;20253;-87
2022/03/26 05:28:20;;;;;;;35.90;22.20;;;;;;;8.44;34.42;102033.53;10336306;28;20502;-86
2022/03/26 05:33:22;;;;;;;37.83;23.87;;;;;;;8.81;34.00;102040.59;10357640;28;20268;-86
2022/03/26 05:38:25;;;;;;;41.07;24.40;;;;;;;8.74;33.98;102040.94;10351000;28;20217;-84
2022/03/26 05:43:27;;;;;;;43.97;24.87;;;;;;;8.64;34.30;102043.84;10351608;28;20264;-84
2022/03/26 05:48:30;;;;;;;42.17;25.57;;;;;;;8.69;34.45;102048.59;10349229;28;20205;-85
2022/03/26 05:53:32;;;;;;;38.83;24.07;;;;;;;8.80;34.12;102053.84;10334103;28;20287;-85
2022/03/26 05:58:34;;;;;;;39.67;23.23;;;;;;;8.82;34.16;102064.84;10334274;28;20267;-84
2022/03/26 06:03:37;;;;;;;41.00;24.90;;;;;;;9.03;33.80;102072.03;10333532;28;20244;-86
2022/03/26 06:08:39;;;;;;;38.23;23.87;;;;;;;8.63;34.46;102074.00;10338381;28;20233;-85
2022/03/26 06:13:42;;;;;;;38.33;24.77;;;;;;;9.00;34.00;102075.41;10353320;28;20283;-86
2022/03/26 06:18:45;;;;;;;39.90;24.53;;;;;;;9.29;33.56;102084.75;10335989;28;20228;-87
2022/03/26 06:23:48;;;;;;;39.37;24.80;;;;;;;9.48;33.40;102081.16;10362015;28;20247;-83
2022/03/26 06:28:50;;;;;;;46.97;24.17;;;;;;;9.48;33.66;102090.47;10342537;28;20288;-87
2022/03/26 06:33:53;;;;;;;40.63;24.47;;;;;;;9.76;33.21;102083.13;10342246;28;20283;-87
2022/03/26 06:38:55;;;;;;;46.60;28.03;;;;;;;9.41;34.02;102094.78;10377927;28;20237;-86
2022/03/26 06:43:57;;;;;;;43.77;24.20;;;;;;;10.06;32.89;102076.25;10361741;28;20260;-86
2022/03/26 06:48:59;;;;;;;44.77;25.03;;;;;;;10.21;32.87;102080.88;10375391;28;20610;-86
2022/03/26 06:54:03;;;;;;;44.10;25.90;;;;;;;10.43;32.15;102084.78;10343580;28;20209;-87
2022/03/26 06:59:06;;;;;;;45.27;25.80;;;;;;;10.62;31.89;102076.31;10371373;28;20228;-87
2022/03/26 07:04:09;;;;;;;37.07;27.03;;;;;;;10.63;31.93;102085.63;10338523;28;20229;-86
2022/03/26 07:09:11;;;;;;;43.23;25.73;;;;;;;10.75;31.95;102078.34;10356660;28;20565;-87
2022/03/26 07:14:13;;;;;;;40.70;24.60;;;;;;;10.87;31.69;102082.72;10373813;28;20319;-87
2022/03/26 07:19:16;;;;;;;45.47;26.47;;;;;;;11.19;31.44;102077.06;10357817;28;20201;-86
2022/03/26 07:24:18;;;;;;;47.13;27.23;;;;;;;11.43;31.00;102077.75;10359959;28;20253;-86
2022/03/26 07:29:20;;;;;;;47.20;25.90;;;;;;;11.81;30.57;102078.41;10376130;28;20561;-85
2022/03/26 07:34:22;;;;;;;41.50;25.63;;;;;;;12.17;29.76;102084.19;10353736;28;20213;-85
2022/03/26 07:39:25;;;;;;;40.27;24.97;;;;;;;12.14;29.42;102082.00;10373252;28;20205;-84
2022/03/26 07:44:27;;;;;;;42.90;26.90;;;;;;;11.71;30.34;102080.63;10353833;28;20225;-85
2022/03/26 07:49:29;;;;;;;46.47;26.83;;;;;;;11.30;30.96;102094.72;10378176;28;20538;-87
2022/03/26 07:54:31;;;;;;;38.27;26.17;;;;;;;12.46;29.47;102085.81;10372506;28;20252;-86
2022/03/26 07:59:33;;;;;;;44.53;28.03;;;;;;;12.67;29.69;102092.72;10373660;28;20267;-90
2022/03/26 08:04:36;;;;;;;42.17;25.87;;;;;;;11.91;30.00;102097.19;10369496;28;20244;-88
2022/03/26 08:09:38;;;;;;;39.40;24.80;;;;;;;12.91;29.01;102095.28;10378524;28;20267;-85
2022/03/26 08:14:40;;;;;;;41.83;27.03;;;;;;;12.63;29.64;102102.19;10375887;28;20256;-88
2022/03/26 08:19:45;;;;;;;41.57;26.63;;;;;;;13.50;28.30;102093.97;10353361;28;20225;-85
2022/03/26 08:24:47;;;;;;;38.87;25.83;;;;;;;13.34;28.44;102091.91;10339134;28;20221;-84
2022/03/26 08:29:52;;;;;;;46.10;27.43;;;;;;;13.29;28.96;102098.56;10336981;28;20209;-87
2022/03/26 08:34:55;;;;;;;41.77;27.07;;;;;;;14.47;26.60;102091.19;10356344;28;20201;-87
2022/03/26 08:39:57;;;;;;;43.47;27.00;;;;;;;14.02;27.78;102099.94;10338617;28;20220;-86
2022/03/26 08:44:59;;;;;;;39.00;26.33;;;;;;;14.56;26.96;102097.72;10354667;28;20312;-87
2022/03/26 08:50:02;;;;;;;38.73;25.53;;;;;;;13.57;28.12;102114.25;10371906;28;20228;-87
2022/03/26 08:55:05;;;;;;;43.40;26.43;;;;;;;14.53;27.81;102115.47;10308466;28;20245;-87
2022/03/26 09:00:08;;;;;;;43.70;26.60;;;;;;;13.87;27.79;102126.78;10343244;28;20241;-87
2022/03/26 09:05:14;;;;;;;39.83;25.27;;;;;;;14.14;27.82;102124.88;10355895;28;20470;-87
2022/03/26 09:10:16;;;;;;;42.40;25.17;;;;;;;13.67;28.74;102123.69;10338100;28;20236;-86
2022/03/26 09:15:18;;;;;;;44.23;26.83;;;;;;;14.18;28.54;102126.75;10314431;28;20335;-88
2022/03/26 09:20:21;;;;;;;47.93;27.93;;;;;;;14.35;28.55;102126.00;10318642;28;20267;-87
2022/03/26 09:25:24;;;;;;;44.40;27.57;;;;;;;14.89;27.63;102123.72;10330244;28;20254;-87
2022/03/26 09:30:27;;;;;;;41.67;27.20;;;;;;;14.11;28.83;102134.94;10321551;28;20609;-86
2022/03/26 09:35:29;;;;;;;37.28;25.23;;;;;;;14.27;28.61;102138.97;10320594;28;20233;-87
2022/03/26 09:40:33;;;;;;;38.15;22.70;;;;;;;15.24;27.77;102127.41;10323243;28;20233;-88
2022/03/26 09:45:35;;;;;;;36.43;21.73;;;;;;;15.12;28.06;102130.94;10310571;28;20225;-88
2022/03/26 09:50:41;;;;;;;32.93;20.27;;;;;;;15.46;27.20;102132.88;10330161;28;20221;-87
2022/03/26 09:55:44;;;;;;;32.40;19.70;;;;;;;15.73;26.78;102132.50;10325441;28;20217;-88
2022/03/26 10:00:47;;;;;;;27.53;19.17;;;;;;;14.64;27.87;102122.50;10310440;28;20206;-88
2022/03/26 10:06:00;;;;;;;31.10;18.03;;;;;;;16.28;26.12;102117.31;10311387;28;20226;-88
2022/03/26 10:11:04;;;;;;;25.03;14.53;;;;;;;15.96;26.33;102107.41;10311331;28;20210;-87
2022/03/26 10:16:09;;;;;;;25.98;13.48;;;;;;;15.84;25.19;102109.31;10366962;28;20633;-88
2022/03/26 10:21:15;;;;;;;21.23;13.73;;;;;;;15.88;25.36;102105.44;10366991;28;20624;-88
2022/03/26 10:26:18;;;;;;;21.70;13.17;;;;;;;16.22;26.21;102098.72;10348844;28;20248;-88
2022/03/26 10:36:54;;;;;;;18.33;11.50;;;;;;;16.33;26.01;102088.56;10358990;28;20225;-88
2022/03/26 10:41:57;;;;;;;20.60;12.65;;;;;;;17.04;25.40;102091.41;10346461;28;20244;-86
2022/03/26 10:47:02;;;;;;;18.10;10.63;;;;;;;16.31;26.49;102079.53;10346831;28;20275;-86
2022/03/26 10:52:11;;;;;;;17.50;10.88;;;;;;;15.66;27.37;102080.84;10350983;28;20237;-88
2022/03/26 10:57:13;;;;;;;16.75;10.80;;;;;;;17.13;25.59;102066.44;10330678;28;20221;-87
2022/03/26 11:02:22;;;;;;;16.03;10.13;;;;;;;17.14;25.39;102068.13;10334739;28;20236;-87
2022/03/26 11:07:26;;;;;;;12.95;9.10;;;;;;;18.21;24.18;102066.13;10353853;28;20746;-87
2022/03/26 11:12:28;;;;;;;16.52;10.88;;;;;;;18.10;24.31;102067.81;10354245;28;20315;-87
2022/03/26 11:17:55;;;;;;;16.23;8.88;;;;;;;17.96;24.77;102058.75;10354894;28;20665;-85
2022/03/26 11:23:10;;;;;;;15.53;10.20;;;;;;;16.32;26.40;102064.09;10339206;28;20382;-87
2022/03/26 11:28:18;;;;;;;11.40;8.07;;;;;;;16.86;25.65;102063.31;10354302;28;20256;-87
2022/03/26 11:33:21;;;;;;;12.98;8.55;;;;;;;17.71;24.90;102058.75;10370702;28;20610;-87
2022/03/26 11:38:24;;;;;;;21.30;7.70;;;;;;;17.65;24.08;102059.28;10353239;28;20275;-88
2022/03/26 11:43:42;;;;;;;10.25;7.70;;;;;;;17.78;24.25;102055.28;10350731;28;20347;-87
2022/03/26 11:54:07;;;;;;;12.38;7.70;;;;;;;18.14;23.50;102022.97;10372328;28;20201;-87
2022/03/26 11:59:15;;;;;;;12.80;7.88;;;;;;;17.53;24.47;102033.53;10370777;28;20194;-86
2022/03/26 12:04:28;;;;;;;12.38;8.18;;;;;;;17.46;24.43;102023.53;10355062;28;20535;-88
2022/03/26 12:09:32;;;;;;;15.00;8.38;;;;;;;18.78;23.33;102005.75;10336533;28;20641;-85
2022/03/26 12:14:55;;;;;;;16.13;10.13;;;;;;;18.12;24.09;102005.31;10338328;28;20221;-85
2022/03/26 12:20:26;;;;;;;19.50;10.27;;;;;;;18.44;23.71;102004.31;10355350;28;20625;-85
2022/03/26 12:25:38;;;;;;;14.98;9.60;;;;;;;17.70;24.95;102008.44;10372591;28;20229;-85
2022/03/26 12:30:48;;;;;;;15.88;10.60;;;;;;;18.00;24.40;101997.59;10351963;28;20669;-85
2022/03/26 12:35:54;;;;;;;14.30;9.85;;;;;;;18.52;23.40;101993.91;10357321;28;20609;-86
2022/03/26 12:41:01;;;;;;;16.63;10.48;;;;;;;18.00;24.28;101979.59;10355242;28;20559;-85
2022/03/26 12:46:08;;;;;;;14.88;8.73;;;;;;;18.75;23.16;101983.53;10370287;28;20241;-84
2022/03/26 12:51:11;;;;;;;12.63;7.65;;;;;;;18.40;23.88;101973.91;10352434;28;20272;-86
2022/03/26 12:56:14;;;;;;;12.95;7.70;;;;;;;17.69;24.37;101986.75;10355590;28;20502;-87
2022/03/26 13:01:16;;;;;;;13.90;7.82;;;;;;;17.69;23.61;101986.75;10351754;28;20561;-87
2022/03/26 13:06:20;;;;;;;14.02;6.55;;;;;;;18.45;22.76;101970.78;10359400;28;20225;-87
2022/03/26 13:11:27;;;;;;;10.45;8.10;;;;;;;18.62;22.91;101967.63;10367480;28;20236;-88
2022/03/26 13:16:32;;;;;;;11.70;7.85;;;;;;;18.17;23.61;101954.38;10362274;28;20236;-87
2022/03/26 13:21:39;;;;;;;11.75;8.70;;;;;;;18.00;23.44;101968.97;10357268;28;20363;-87
2022/03/26 13:26:53;;;;;;;14.23;9.48;;;;;;;17.82;23.87;101962.66;10375342;28;20249;-87
2022/03/26 13:31:58;;;;;;;13.52;9.38;;;;;;;17.64;24.28;101964.06;10358352;28;20201;-86
2022/03/26 13:37:12;;;;;;;13.95;8.68;;;;;;;18.36;23.63;101947.19;10360717;28;20205;-87
2022/03/26 13:42:17;;;;;;;15.07;9.23;;;;;;;19.16;22.61;101947.88;10346715;28;20209;-87
2022/03/26 13:47:23;;;;;;;14.57;8.52;;;;;;;19.46;22.16;101944.53;10354678;28;20236;-86
2022/03/26 13:52:27;;;;;;;10.05;7.35;;;;;;;19.38;22.50;101943.53;10363805;28;20569;-86
2022/03/26 13:57:33;;;;;;;10.38;6.88;;;;;;;18.85;22.53;101936.34;10353411;28;20255;-87
2022/03/26 14:02:36;;;;;;;12.27;5.93;;;;;;;20.16;20.70;101919.59;10370584;28;20205;-86
2022/03/26 14:07:39;;;;;;;5.95;4.90;;;;;;;18.48;21.88;101936.53;10340181;28;20296;-86
2022/03/26 14:12:41;;;;;;;11.52;6.25;;;;;;;19.29;21.90;101933.44;10367965;28;20238;-88
2022/03/26 14:17:44;;;;;;;11.48;7.03;;;;;;;18.77;21.77;101923.03;10317552;28;20666;-89
2022/03/26 14:22:47;;;;;;;11.00;8.20;;;;;;;18.52;22.76;101917.41;10339954;28;20650;-89
2022/03/26 14:27:50;;;;;;;9.20;7.05;;;;;;;19.12;20.59;101918.28;10340180;28;20220;-89
2022/03/26 14:32:54;;;;;;;8.38;6.32;;;;;;;19.34;20.74;101904.47;10325117;28;20256;-86
2022/03/26 14:37:58;;;;;;;14.20;8.23;;;;;;;18.00;21.82;101906.03;10337732;28;20202;-87
2022/03/26 14:43:01;;;;;;;13.38;8.95;;;;;;;18.79;21.46;101895.63;10315275;28;20275;-86
2022/03/26 14:48:04;;;;;;;17.00;10.10;;;;;;;18.44;21.93;101892.63;10331911;28;20653;-84
2022/03/26 14:53:06;;;;;;;14.05;9.77;;;;;;;19.41;20.85;101891.16;10360753;28;20315;-85
2022/03/26 14:58:11;;;;;;;13.73;9.82;;;;;;;17.77;22.57;101885.66;10337592;28;20198;-83
2022/03/26 15:03:13;;;;;;;15.80;10.88;;;;;;;18.63;21.89;101876.78;10348666;28;20209;-85
2022/03/26 15:08:16;;;;;;;15.35;10.45;;;;;;;19.09;21.38;101884.59;10344303;28;20229;-86
2022/03/26 15:13:18;;;;;;;14.80;10.07;;;;;;;19.73;20.20;101877.59;10354562;28;20294;-86
2022/03/26 15:18:21;;;;;;;12.75;9.18;;;;;;;18.68;21.15;101879.34;10343786;28;20296;-88
2022/03/26 15:23:24;;;;;;;16.17;10.68;;;;;;;18.60;21.05;101875.47;10334892;28;20514;-86
2022/03/26 15:28:27;;;;;;;13.73;10.35;;;;;;;19.55;20.25;101870.63;10311292;28;20226;-85
2022/03/26 15:33:29;;;;;;;15.60;10.25;;;;;;;19.18;20.43;101870.09;10317457;28;20209;-88
2022/03/26 15:38:32;;;;;;;16.15;11.50;;;;;;;19.75;19.69;101866.56;10331399;28;20206;-89
2022/03/26 15:43:34;;;;;;;15.48;10.55;;;;;;;19.50;20.06;101870.91;10334419;28;20213;-87
2022/03/26 15:48:36;;;;;;;15.75;10.63;;;;;;;19.30;20.63;101866.28;10322880;28;20234;-86
2022/03/26 15:53:39;;;;;;;17.38;12.32;;;;;;;17.59;22.72;101872.81;10323739;28;20434;-88
2022/03/26 15:58:42;;;;;;;16.65;11.60;;;;;;;18.68;21.78;101873.63;10332011;28;20542;-85
2022/03/26 16:03:44;;;;;;;17.88;12.52;;;;;;;19.38;20.88;101873.84;10332757;28;20260;-86
2022/03/26 16:08:47;;;;;;;16.92;11.70;;;;;;;19.59;20.70;101868.66;10314696;28;20225;-87
2022/03/26 16:13:50;;;;;;;17.45;12.60;;;;;;;18.77;22.00;101872.28;10324024;28;20234;-85
2022/03/26 16:18:52;;;;;;;15.77;11.07;;;;;;;18.45;22.37;101865.66;10334305;28;20202;-85
2022/03/26 16:23:55;;;;;;;20.02;11.68;;;;;;;18.79;22.21;101869.84;10343251;28;20205;-87
2022/03/26 16:28:57;;;;;;;15.70;12.05;;;;;;;18.41;22.28;101864.72;10350743;28;20248;-85
2022/03/26 16:34:00;;;;;;;13.00;9.80;;;;;;;18.92;22.13;101861.22;10318284;28;20198;-86
2022/03/26 16:39:02;;;;;;;19.08;10.27;;;;;;;19.04;22.32;101859.09;10317694;28;20232;-87
2022/03/26 16:44:05;;;;;;;16.00;11.00;;;;;;;19.84;21.23;101858.56;10327586;28;20221;-89
2022/03/26 16:49:07;;;;;;;18.00;11.20;;;;;;;20.20;20.97;101865.97;10307625;28;20249;-85
2022/03/26 16:54:11;;;;;;;14.18;9.23;;;;;;;19.32;21.93;101853.22;10337963;28;20213;-87
2022/03/26 16:59:14;;;;;;;15.77;10.10;;;;;;;19.00;22.32;101863.91;10333438;28;20206;-89
2022/03/26 17:04:16;;;;;;;14.38;9.18;;;;;;;19.22;22.25;101856.66;10326356;28;20241;-88
2022/03/26 17:09:18;;;;;;;11.60;9.55;;;;;;;19.72;22.05;101855.00;10323064;28;20630;-87
2022/03/26 17:14:21;;;;;;;15.15;10.27;;;;;;;18.33;23.25;101865.72;10309924;28;20264;-90
2022/03/26 17:19:23;;;;;;;13.15;9.50;;;;;;;18.74;22.70;101854.97;10321948;28;20202;-90
2022/03/26 17:24:25;;;;;;;12.52;8.68;;;;;;;19.20;22.60;101854.16;10313187;28;20280;-88
2022/03/26 17:29:28;;;;;;;14.77;8.98;;;;;;;19.22;22.80;101848.91;10315875;28;20249;-90
2022/03/26 17:34:30;;;;;;;13.80;8.20;;;;;;;19.00;22.92;101858.16;10300546;28;20705;-90
2022/03/26 17:39:32;;;;;;;13.52;8.23;;;;;;;19.34;23.07;101855.72;10337179;28;20512;-89
2022/03/26 17:44:34;;;;;;;10.77;7.22;;;;;;;19.47;22.83;101865.88;10338123;28;20209;-86
2022/03/26 17:49:40;;;;;;;11.52;8.18;;;;;;;19.03;22.63;101866.03;10315452;28;20229;-88
2022/03/26 17:54:42;;;;;;;12.30;8.90;;;;;;;19.08;22.82;101859.16;10328670;28;20205;-88
2022/03/26 17:59:45;;;;;;;11.87;8.37;;;;;;;18.69;23.88;101869.56;10320073;28;20227;-89
2022/03/26 18:04:48;;;;;;;13.88;8.43;;;;;;;18.68;23.62;101868.72;10305320;28;20233;-88
2022/03/26 18:09:50;;;;;;;13.02;9.15;;;;;;;18.25;24.20;101878.13;10325771;28;20298;-87
2022/03/26 18:14:53;;;;;;;11.80;8.07;;;;;;;18.19;24.71;101885.31;10328339;28;20268;-87
2022/03/26 18:19:56;;;;;;;11.60;8.63;;;;;;;17.60;25.30;101885.94;10363391;28;20224;-91
2022/03/26 18:25:00;;;;;;;12.38;8.77;;;;;;;17.50;25.53;101886.38;10357655;28;20220;-89
2022/03/26 18:30:03;;;;;;;15.25;9.38;;;;;;;17.63;24.93;101887.22;10373998;28;20220;-89
2022/03/26 18:35:07;;;;;;;14.57;9.73;;;;;;;18.18;24.87;101895.09;10380602;28;20213;-92
2022/03/26 18:40:13;;;;;;;13.87;9.83;;;;;;;18.29;24.93;101895.44;10368834;28;20240;-89
2022/03/26 18:45:17;;;;;;;16.50;10.88;;;;;;;17.86;25.45;101905.56;10368451;28;20232;-87
2022/03/26 18:50:20;;;;;;;16.33;12.02;;;;;;;18.17;24.85;101908.56;10376594;28;20217;-87
2022/03/26 18:55:22;;;;;;;19.25;12.23;;;;;;;17.90;25.56;101911.38;10381686;28;20227;-88
2022/03/26 19:00:33;;;;;;;19.40;12.87;;;;;;;17.98;25.42;101919.84;10361699;28;20202;-90
2022/03/26 19:05:40;;;;;;;15.13;11.88;;;;;;;16.97;26.48;101925.44;10369835;28;20254;-89
2022/03/26 19:10:44;;;;;;;15.03;10.93;;;;;;;17.22;26.36;101929.19;10352354;28;20719;-88
2022/03/26 19:15:47;;;;;;;19.43;14.93;;;;;;;17.34;26.64;101932.03;10328132;28;20241;-91
2022/03/26 19:20:50;;;;;;;19.42;13.07;;;;;;;17.49;26.36;101936.22;10297151;28;20252;-87
2022/03/26 19:25:55;;;;;;;17.65;12.05;;;;;;;17.57;26.52;101932.41;10294507;28;20214;-87
2022/03/26 19:30:59;;;;;;;16.13;11.73;;;;;;;17.16;27.45;101949.75;10353384;28;20261;-90
2022/03/26 19:36:02;;;;;;;19.50;12.40;;;;;;;17.06;27.62;101945.34;10325452;28;20237;-85
2022/03/26 19:41:07;;;;;;;25.63;14.83;;;;;;;17.54;27.48;101947.41;10307650;28;20252;-88
2022/03/26 19:46:12;;;;;;;20.50;14.87;;;;;;;17.13;28.11;101957.84;10303402;28;20234;-89
2022/03/26 19:51:17;;;;;;;18.63;13.98;;;;;;;17.02;28.45;101964.34;10325822;28;20251;-87
2022/03/26 19:56:25;;;;;;;19.45;12.00;;;;;;;17.29;27.92;101965.72;10341883;28;20672;-89
2022/03/26 20:01:45;;;;;;;15.37;12.30;;;;;;;17.31;28.08;101969.06;10311812;28;20210;-89
2022/03/26 20:06:52;;;;;;;17.90;12.20;;;;;;;16.79;28.96;101975.34;10342817;28;20264;-87
2022/03/26 20:11:55;;;;;;;19.63;12.47;;;;;;;17.20;28.41;101973.59;10338533;28;20229;-89
2022/03/26 20:22:25;;;;;;;15.60;12.20;;;;;;;16.24;29.59;101975.66;10371548;28;20201;-87
2022/03/26 20:27:28;;;;;;;17.13;13.43;;;;;;;17.11;28.40;101977.38;10347910;28;20228;-88
2022/03/26 20:32:32;;;;;;;19.15;14.43;;;;;;;17.17;28.38;101980.84;10360874;28;20559;-89
2022/03/26 20:37:34;;;;;;;20.00;13.80;;;;;;;16.84;28.97;101983.72;10360111;28;20547;-90
2022/03/26 20:42:37;;;;;;;16.50;13.02;;;;;;;16.76;29.11;101987.47;10358738;28;20239;-87
2022/03/26 20:47:39;;;;;;;19.83;11.80;;;;;;;16.78;29.15;101996.53;10354865;28;20252;-88
2022/03/26 20:52:42;;;;;;;17.87;12.07;;;;;;;16.88;28.92;101996.09;10335544;28;20205;-91
2022/03/26 20:57:45;;;;;;;18.73;12.10;;;;;;;16.54;29.30;101996.44;10361513;28;21062;-90
2022/03/26 21:02:48;;;;;;;17.17;12.53;;;;;;;16.53;29.66;102001.31;10358688;28;20209;-91
2022/03/26 21:07:50;;;;;;;14.60;10.73;;;;;;;16.17;30.29;102007.63;10360164;28;20239;-90
2022/03/26 21:12:54;;;;;;;14.03;10.37;;;;;;;16.53;29.75;102003.31;10358563;28;20279;-90
2022/03/26 21:17:57;;;;;;;13.83;10.20;;;;;;;16.22;30.03;101998.84;10339606;28;20507;-88
2022/03/26 21:22:59;;;;;;;15.63;9.85;;;;;;;16.25;30.13;101998.16;10346599;28;20268;-87
2022/03/26 21:28:03;;;;;;;16.02;9.80;;;;;;;16.53;29.68;102007.03;10345333;28;20266;-90
2022/03/26 21:33:06;;;;;;;15.97;9.47;;;;;;;15.98;30.76;102001.53;10369827;28;20588;-89
2022/03/26 21:38:10;;;;;;;13.43;10.50;;;;;;;16.02;30.63;102019.63;10375446;28;20635;-90
2022/03/26 21:43:15;;;;;;;14.83;10.43;;;;;;;16.01;30.78;102007.38;10341361;28;20213;-89
2022/03/26 21:48:19;;;;;;;12.83;9.40;;;;;;;16.02;30.77;102005.38;10341916;28;20271;-89
2022/03/26 21:53:21;;;;;;;14.38;9.68;;;;;;;15.54;31.67;102009.47;10368763;28;20240;-89
2022/03/26 21:58:24;;;;;;;10.90;8.60;;;;;;;15.72;31.65;102005.38;10355957;28;20348;-88
2022/03/26 22:03:27;;;;;;;9.60;7.87;;;;;;;15.67;31.59;102008.41;10355784;28;20213;-87
2022/03/26 22:08:29;;;;;;;11.03;7.47;;;;;;;15.58;32.05;102007.59;10366662;28;20257;-88
2022/03/26 22:13:31;;;;;;;9.90;7.30;;;;;;;15.68;31.46;102015.75;10378511;28;20715;-89
2022/03/26 22:18:34;;;;;;;13.77;8.27;;;;;;;15.38;32.47;102017.75;10370863;28;20221;-89
2022/03/26 22:23:36;;;;;;;13.07;8.73;;;;;;;15.37;32.25;102020.94;10362117;28;20259;-87
2022/03/26 22:28:39;;;;;;;14.13;9.30;;;;;;;15.08;32.43;102013.13;10357231;28;20229;-90
2022/03/26 22:33:41;;;;;;;11.53;8.20;;;;;;;15.27;32.06;102015.63;10354190;28;20279;-87
2022/03/26 22:38:44;;;;;;;13.77;8.77;;;;;;;15.21;32.52;102014.94;10334764;28;20205;-91
2022/03/26 22:43:46;;;;;;;17.03;9.83;;;;;;;14.76;33.20;102017.38;10370924;28;20255;-89
2022/03/26 22:48:50;;;;;;;15.97;9.90;;;;;;;14.34;34.10;102023.91;10369445;28;20229;-90
2022/03/26 22:53:52;;;;;;;9.70;7.23;;;;;;;14.77;33.31;102018.22;10353961;28;20282;-89
2022/03/26 22:58:55;;;;;;;8.93;7.33;;;;;;;14.80;32.98;102024.03;10335365;28;20220;-90
2022/03/26 23:03:57;;;;;;;10.30;7.80;;;;;;;15.01;32.83;102015.66;10373238;28;20202;-90